createdAt,value
2022-12-11T00:01:21.700Z,23.13
2022-12-11T00:03:51.607Z,22.77
2022-12-11T00:06:22.958Z,23.37
2022-12-11T00:08:53.538Z,24.57
2022-12-11T00:11:24.102Z,23.00
2022-12-11T00:14:00.564Z,23.60
2022-12-11T00:16:46.360Z,21.77
2022-12-11T00:19:15.587Z,21.47
2022-12-11T00:21:52.597Z,21.47
2022-12-11T00:24:23.482Z,22.73
2022-12-11T00:26:55.478Z,21.23
2022-12-11T00:29:41.091Z,21.80
2022-12-11T00:32:10.612Z,20.57
2022-12-11T00:34:40.406Z,20.67
2022-12-11T00:37:14.651Z,20.20
2022-12-11T00:39:51.344Z,20.30
2022-12-11T00:42:23.656Z,20.40
2022-12-11T00:44:56.546Z,19.53
2022-12-11T00:47:24.963Z,20.90
2022-12-11T00:49:53.833Z,19.87
2022-12-11T00:52:28.012Z,20.33
2022-12-11T00:54:56.511Z,20.10
2022-12-11T00:57:33.043Z,20.60
2022-12-11T01:00:09.652Z,19.77
2022-12-11T01:02:41.448Z,20.00
2022-12-11T01:05:14.329Z,20.03
2022-12-11T01:07:49.096Z,18.73
2022-12-11T01:10:29.524Z,18.10
2022-12-11T01:13:04.079Z,20.40
2022-12-11T01:15:44.512Z,17.87
2022-12-11T01:18:16.157Z,18.20
2022-12-11T01:20:46.458Z,16.83
2022-12-11T01:23:15.460Z,17.50
2022-12-11T01:25:46.553Z,19.63
2022-12-11T01:28:16.155Z,17.73
2022-12-11T01:30:46.227Z,17.83
2022-12-11T01:33:15.520Z,18.40
2022-12-11T01:35:44.562Z,18.17
2022-12-11T01:38:17.867Z,19.57
2022-12-11T01:40:57.229Z,19.03
2022-12-11T01:43:26.751Z,19.10
2022-12-11T01:46:01.487Z,18.27
2022-12-11T01:48:42.453Z,19.17
2022-12-11T01:51:11.672Z,19.03
2022-12-11T01:53:42.823Z,17.93
2022-12-11T01:56:13.945Z,19.17
2022-12-11T01:58:51.868Z,18.50
2022-12-11T02:01:31.045Z,18.67
2022-12-11T02:04:03.143Z,18.53
2022-12-11T02:06:34.030Z,17.17
2022-12-11T02:09:05.437Z,17.70
2022-12-11T02:11:47.626Z,16.60
2022-12-11T02:14:26.835Z,17.37
2022-12-11T02:17:04.797Z,17.10
2022-12-11T02:19:56.750Z,17.13
2022-12-11T02:22:34.949Z,17.47
2022-12-11T02:25:12.662Z,17.10
2022-12-11T02:28:01.034Z,16.43
2022-12-11T02:30:43.652Z,17.90
2022-12-11T02:33:16.449Z,17.87
2022-12-11T02:35:49.851Z,16.90
2022-12-11T02:38:21.110Z,18.83
2022-12-11T02:40:59.433Z,17.83
2022-12-11T02:43:31.871Z,18.03
2022-12-11T02:46:04.855Z,16.30
2022-12-11T02:48:36.877Z,16.87
2022-12-11T02:51:08.782Z,16.87
2022-12-11T02:53:47.111Z,15.70
2022-12-11T02:56:28.962Z,16.53
2022-12-11T02:59:04.869Z,17.37
2022-12-11T03:01:44.548Z,15.60
2022-12-11T03:04:12.788Z,17.90
2022-12-11T03:06:45.543Z,16.63
2022-12-11T03:09:16.974Z,14.60
2022-12-11T03:11:51.967Z,16.77
2022-12-11T03:14:21.526Z,14.73
2022-12-11T03:17:11.098Z,15.90
2022-12-11T03:19:46.688Z,13.70
2022-12-11T03:22:21.082Z,16.03
2022-12-11T03:24:52.570Z,14.93
2022-12-11T03:27:35.660Z,13.13
2022-12-11T03:30:20.973Z,14.27
2022-12-11T03:33:07.175Z,14.90
2022-12-11T03:35:37.428Z,13.80
2022-12-11T03:38:08.872Z,15.30
2022-12-11T03:40:38.316Z,14.40
2022-12-11T03:43:07.083Z,15.30
2022-12-11T03:45:36.043Z,13.80
2022-12-11T03:48:07.263Z,13.33
2022-12-11T03:50:40.892Z,13.80
2022-12-11T03:53:12.725Z,14.60
2022-12-11T03:55:42.929Z,13.03
2022-12-11T03:58:14.847Z,14.60
2022-12-11T04:00:56.548Z,15.60
2022-12-11T04:03:40.745Z,13.63
2022-12-11T04:06:09.640Z,14.83
2022-12-11T04:08:48.064Z,13.87
2022-12-11T04:11:35.849Z,15.53
2022-12-11T04:14:25.956Z,15.67
2022-12-11T04:17:03.706Z,13.87
2022-12-11T04:19:50.876Z,15.37
2022-12-11T04:22:39.915Z,15.20
2022-12-11T04:25:09.488Z,15.00
2022-12-11T04:27:55.622Z,15.60
2022-12-11T04:30:41.570Z,15.90
2022-12-11T04:33:10.448Z,15.00
2022-12-11T04:35:56.167Z,15.50
2022-12-11T04:38:34.093Z,15.03
2022-12-11T04:41:03.156Z,15.87
2022-12-11T04:43:31.651Z,14.70
2022-12-11T04:46:14.776Z,16.00
2022-12-11T04:48:44.278Z,16.90
2022-12-11T04:51:20.395Z,15.73
2022-12-11T04:53:51.127Z,15.37
2022-12-11T04:56:25.514Z,15.17
2022-12-11T04:58:54.541Z,15.83
2022-12-11T05:01:24.939Z,16.03
2022-12-11T05:04:01.368Z,17.10
2022-12-11T05:06:32.241Z,16.30
2022-12-11T05:09:02.957Z,16.50
2022-12-11T05:11:35.262Z,16.43
2022-12-11T05:14:09.584Z,16.10
2022-12-11T05:16:41.589Z,15.77
2022-12-11T05:19:21.812Z,14.43
2022-12-11T05:22:01.084Z,15.17
2022-12-11T05:24:31.142Z,14.30
2022-12-11T05:27:01.449Z,15.03
2022-12-11T05:29:32.125Z,14.53
2022-12-11T05:32:07.730Z,16.27
2022-12-11T05:34:43.665Z,16.50
2022-12-11T05:37:21.310Z,14.40
2022-12-11T05:40:00.965Z,14.60
2022-12-11T05:42:34.956Z,16.33
2022-12-11T05:45:05.683Z,16.10
2022-12-11T05:47:38.977Z,15.67
2022-12-11T05:50:12.516Z,15.20
2022-12-11T05:52:51.041Z,15.60
2022-12-11T05:55:29.132Z,15.53
2022-12-11T05:58:05.334Z,16.17
2022-12-11T06:00:36.300Z,16.10
2022-12-11T06:03:08.501Z,15.10
2022-12-11T06:05:50.757Z,14.27
2022-12-11T06:08:23.196Z,15.87
2022-12-11T06:10:52.244Z,15.43
2022-12-11T06:13:21.771Z,15.53
2022-12-11T06:15:50.873Z,14.90
2022-12-11T06:18:21.972Z,13.27
2022-12-11T06:21:01.649Z,13.73
2022-12-11T06:23:32.676Z,14.90
2022-12-11T06:26:07.448Z,14.90
2022-12-11T06:28:37.237Z,12.80
2022-12-11T06:31:09.569Z,13.40
2022-12-11T06:33:45.796Z,13.67
2022-12-11T06:36:17.602Z,13.90
2022-12-11T06:38:58.384Z,12.93
2022-12-11T06:41:26.887Z,13.37
2022-12-11T06:43:56.368Z,12.03
2022-12-11T06:46:33.769Z,13.00
2022-12-11T06:49:06.548Z,11.20
2022-12-11T06:51:37.624Z,10.73
2022-12-11T06:54:25.810Z,11.60
2022-12-11T06:56:55.481Z,12.63
2022-12-11T06:59:27.629Z,11.27
2022-12-11T07:01:59.228Z,10.90
2022-12-11T07:04:28.552Z,11.20
2022-12-11T07:06:57.337Z,10.37
2022-12-11T07:09:41.504Z,12.37
2022-12-11T07:12:11.500Z,10.93
2022-12-11T07:14:48.195Z,11.50
2022-12-11T07:17:17.941Z,10.80
2022-12-11T07:19:49.849Z,9.90
2022-12-11T07:22:20.213Z,11.00
2022-12-11T07:25:03.858Z,10.50
2022-12-11T07:27:34.544Z,10.97
2022-12-11T07:30:15.685Z,11.30
2022-12-11T07:32:46.459Z,11.13
2022-12-11T07:35:16.632Z,11.27
2022-12-11T07:37:47.149Z,11.40
2022-12-11T07:40:27.813Z,11.57
2022-12-11T07:43:02.011Z,10.93
2022-12-11T07:45:42.349Z,10.57
2022-12-11T07:48:20.110Z,10.50
2022-12-11T07:50:48.453Z,10.30
2022-12-11T07:53:16.753Z,10.60
2022-12-11T07:55:47.813Z,11.40
2022-12-11T07:58:17.210Z,10.50
2022-12-11T08:00:49.734Z,10.03
2022-12-11T08:03:18.360Z,10.77
2022-12-11T08:05:49.941Z,10.80
2022-12-11T08:08:18.907Z,9.87
2022-12-11T08:11:04.957Z,9.77
2022-12-11T08:13:50.201Z,9.30
2022-12-11T08:16:28.305Z,9.73
2022-12-11T08:19:01.165Z,9.53
2022-12-11T08:21:37.643Z,9.97
2022-12-11T08:24:17.570Z,9.70
2022-12-11T08:26:56.892Z,9.93
2022-12-11T08:29:31.509Z,9.20
2022-12-11T08:32:04.368Z,10.40
2022-12-11T08:34:39.796Z,10.47
2022-12-11T08:37:09.880Z,10.73
2022-12-11T08:39:41.659Z,11.17
2022-12-11T08:42:11.359Z,11.37
2022-12-11T08:44:39.633Z,10.57
2022-12-11T08:47:11.032Z,11.37
2022-12-11T08:49:40.657Z,10.20
2022-12-11T08:52:08.898Z,9.90
2022-12-11T08:54:42.915Z,10.37
2022-12-11T08:57:13.987Z,9.70
2022-12-11T08:59:47.445Z,8.67
2022-12-11T09:02:15.790Z,8.90
2022-12-11T09:05:00.293Z,9.20
2022-12-11T09:07:36.675Z,8.77
2022-12-11T09:10:07.428Z,9.70
2022-12-11T09:12:39.048Z,8.80
2022-12-11T09:15:10.835Z,7.97
2022-12-11T09:17:39.090Z,8.97
2022-12-11T09:20:12.391Z,7.80
2022-12-11T09:22:43.471Z,7.90
2022-12-11T09:25:11.985Z,8.10
2022-12-11T09:27:56.513Z,7.50
2022-12-11T09:30:25.981Z,7.57
2022-12-11T09:33:00.675Z,7.90
2022-12-11T09:35:30.452Z,8.87
2022-12-11T09:37:59.906Z,8.90
2022-12-11T09:40:39.947Z,9.07
2022-12-11T09:43:23.716Z,8.00
2022-12-11T09:45:55.798Z,8.20
2022-12-11T09:48:33.971Z,7.70
2022-12-11T09:51:11.891Z,8.57
2022-12-11T09:53:39.994Z,8.47
2022-12-11T09:56:18.081Z,7.80
2022-12-11T09:59:01.389Z,7.27
2022-12-11T10:01:44.300Z,8.13
2022-12-11T10:04:40.933Z,7.40
2022-12-11T10:07:18.949Z,7.67
2022-12-11T10:09:53.723Z,7.40
2022-12-11T10:12:34.465Z,6.90
2022-12-11T10:15:33.935Z,7.57
2022-12-11T10:18:12.186Z,7.03
2022-12-11T10:20:46.883Z,7.63
2022-12-11T10:23:23.470Z,7.60
2022-12-11T10:26:01.225Z,7.77
2022-12-11T10:28:31.558Z,7.43
2022-12-11T10:31:14.665Z,7.03
2022-12-11T10:33:49.716Z,7.10
2022-12-11T10:36:31.325Z,7.70
2022-12-11T10:38:59.721Z,7.50
2022-12-11T10:41:40.938Z,6.13
2022-12-11T10:44:19.365Z,7.50
2022-12-11T10:47:06.727Z,6.87
2022-12-11T10:49:37.604Z,7.07
2022-12-11T10:52:11.946Z,6.90
2022-12-11T10:54:42.259Z,6.73
2022-12-11T10:57:15.292Z,7.37
2022-12-11T10:59:48.322Z,7.73
2022-12-11T11:02:27.054Z,7.20
2022-12-11T11:04:57.838Z,8.27
2022-12-11T11:07:34.564Z,7.57
2022-12-11T11:10:21.018Z,7.20
2022-12-11T11:12:50.599Z,7.10
2022-12-11T11:15:25.219Z,7.20
2022-12-11T11:17:59.912Z,7.57
2022-12-11T11:20:38.953Z,7.80
2022-12-11T11:23:14.960Z,8.03
2022-12-11T11:25:59.916Z,8.03
2022-12-11T11:28:32.708Z,7.93
2022-12-11T11:31:04.352Z,8.77
2022-12-11T11:33:39.095Z,8.83
2022-12-11T11:36:22.710Z,7.70
2022-12-11T11:39:07.591Z,7.47
2022-12-11T11:41:47.346Z,7.93
2022-12-11T11:44:20.157Z,8.30
2022-12-11T11:47:01.985Z,6.50
2022-12-11T11:49:55.334Z,7.07
2022-12-11T11:52:31.311Z,6.90
2022-12-11T11:55:10.790Z,7.10
2022-12-11T11:57:46.868Z,7.07
2022-12-11T12:00:28.883Z,8.03
2022-12-11T12:03:13.888Z,7.33
2022-12-11T12:05:56.223Z,6.63
2022-12-11T12:08:37.618Z,6.47
2022-12-11T12:11:17.368Z,6.30
2022-12-11T12:13:56.511Z,6.10
2022-12-11T12:16:53.997Z,6.00
2022-12-11T12:19:37.582Z,8.70
2022-12-11T12:22:15.915Z,6.57
2022-12-11T12:25:09.693Z,7.57
2022-12-11T12:27:53.860Z,6.33
2022-12-11T12:30:27.834Z,7.07
2022-12-11T12:36:27.804Z,6.47
2022-12-11T12:39:05.193Z,6.43
2022-12-11T12:41:44.200Z,6.33
2022-12-11T12:44:18.340Z,6.70
2022-12-11T12:46:58.780Z,7.10
2022-12-11T12:49:52.066Z,6.80
2022-12-11T12:52:35.468Z,7.43
2022-12-11T12:55:23.258Z,7.93
2022-12-11T12:57:57.959Z,7.47
2022-12-11T13:00:34.951Z,8.43
2022-12-11T13:03:05.030Z,7.50
2022-12-11T13:05:37.293Z,7.20
2022-12-11T13:08:11.869Z,7.10
2022-12-11T13:10:48.555Z,7.30
2022-12-11T13:13:54.489Z,7.83
2022-12-11T13:16:33.118Z,6.20
2022-12-11T13:19:01.980Z,7.70
2022-12-11T13:21:37.849Z,7.90
2022-12-11T13:24:28.521Z,7.67
2022-12-11T13:27:26.191Z,7.60
2022-12-11T13:30:11.145Z,7.47
2022-12-11T13:32:46.054Z,7.57
2022-12-11T13:35:21.289Z,7.93
2022-12-11T13:37:58.938Z,8.27
2022-12-11T13:40:35.013Z,7.33
2022-12-11T13:43:18.701Z,8.07
2022-12-11T13:45:58.442Z,8.77
2022-12-11T13:48:38.599Z,7.07
2022-12-11T13:51:10.118Z,8.50
2022-12-11T13:53:42.227Z,6.60
2022-12-11T13:56:23.005Z,7.50
2022-12-11T13:58:57.963Z,7.07
2022-12-11T14:01:31.201Z,6.87
2022-12-11T14:04:08.157Z,7.93
2022-12-11T14:06:43.374Z,6.70
2022-12-11T14:09:20.568Z,6.63
2022-12-11T14:11:58.212Z,7.70
2022-12-11T14:14:43.235Z,7.17
2022-12-11T14:17:14.845Z,6.87
2022-12-11T14:19:49.058Z,7.00
2022-12-11T14:22:27.355Z,6.90
2022-12-11T14:25:00.082Z,6.47
2022-12-11T14:27:29.056Z,6.67
2022-12-11T14:30:21.360Z,6.80
2022-12-11T14:33:00.875Z,6.87
2022-12-11T14:35:38.960Z,7.60
2022-12-11T14:38:15.420Z,7.00
2022-12-11T14:40:52.937Z,6.10
2022-12-11T14:43:27.005Z,6.63
2022-12-11T14:46:04.250Z,6.87
2022-12-11T14:48:38.936Z,7.70
2022-12-11T14:51:27.705Z,7.70
2022-12-11T14:54:05.301Z,7.83
2022-12-11T14:56:51.495Z,7.97
2022-12-11T14:59:32.643Z,8.00
2022-12-11T15:02:06.459Z,6.70
2022-12-11T15:04:41.379Z,7.63
2022-12-11T15:07:26.781Z,7.10
2022-12-11T15:09:57.863Z,7.90
2022-12-11T15:12:29.342Z,6.93
2022-12-11T15:15:02.698Z,8.23
2022-12-11T15:17:35.084Z,7.80
2022-12-11T15:20:14.527Z,7.10
2022-12-11T15:22:44.855Z,7.53
2022-12-11T15:25:21.227Z,6.80
2022-12-11T15:27:56.245Z,7.70
2022-12-11T15:30:36.084Z,7.70
2022-12-11T15:33:37.818Z,8.30
2022-12-11T15:36:29.170Z,6.70
2022-12-11T15:39:03.452Z,6.57
2022-12-11T15:41:35.350Z,6.43
2022-12-11T15:44:19.406Z,6.43
2022-12-11T15:46:53.361Z,7.80
2022-12-11T15:49:39.754Z,7.10
2022-12-11T15:52:09.930Z,8.53
2022-12-11T15:54:54.951Z,7.50
2022-12-11T15:57:34.090Z,8.00
2022-12-11T16:00:06.443Z,7.77
2022-12-11T16:02:39.267Z,8.10
2022-12-11T16:05:10.683Z,7.80
2022-12-11T16:07:39.493Z,8.07
2022-12-11T16:10:17.324Z,8.03
2022-12-11T16:12:47.736Z,8.10
2022-12-11T16:15:23.159Z,9.70
2022-12-11T16:17:59.785Z,7.83
2022-12-11T16:20:29.441Z,8.07
2022-12-11T16:22:59.604Z,7.40
2022-12-11T16:25:28.597Z,8.10
2022-12-11T16:27:58.425Z,8.90
2022-12-11T16:30:28.929Z,8.20
2022-12-11T16:33:08.573Z,9.43
2022-12-11T16:35:42.987Z,8.30
2022-12-11T16:38:14.082Z,9.83
2022-12-11T16:40:43.101Z,8.77
2022-12-11T16:43:11.907Z,9.40
2022-12-11T16:45:42.112Z,9.63
2022-12-11T16:48:21.960Z,8.50
2022-12-11T16:51:10.382Z,9.70
2022-12-11T16:53:48.390Z,9.37
2022-12-11T16:56:19.119Z,9.70
2022-12-11T16:58:49.905Z,8.50
2022-12-11T17:01:19.458Z,9.13
2022-12-11T17:03:51.119Z,8.90
2022-12-11T17:06:33.926Z,8.97
2022-12-11T17:09:02.869Z,9.43
2022-12-11T17:11:32.056Z,10.13
2022-12-11T17:14:03.651Z,10.43
2022-12-11T17:16:48.288Z,9.83
2022-12-11T17:19:27.153Z,9.57
2022-12-11T17:22:05.215Z,10.77
2022-12-11T17:24:40.885Z,10.27
2022-12-11T17:27:25.975Z,11.30
2022-12-11T17:30:05.506Z,11.30
2022-12-11T17:32:57.118Z,10.60
2022-12-11T17:35:29.772Z,11.07
2022-12-11T17:38:12.893Z,10.57
2022-12-11T17:40:50.347Z,11.30
2022-12-11T17:43:24.716Z,11.73
2022-12-11T17:45:55.832Z,10.87
2022-12-11T17:48:30.204Z,11.33
2022-12-11T17:51:13.206Z,11.60
2022-12-11T17:53:46.667Z,11.43
2022-12-11T17:56:17.203Z,12.27
2022-12-11T17:58:46.969Z,11.83
2022-12-11T18:01:21.865Z,13.60
2022-12-11T18:04:06.841Z,14.67
2022-12-11T18:06:40.786Z,12.80
2022-12-11T18:09:21.982Z,12.90
2022-12-11T18:11:52.220Z,14.30
2022-12-11T18:14:23.692Z,14.37
2022-12-11T18:16:54.167Z,15.97
2022-12-11T18:19:34.270Z,14.97
2022-12-11T18:22:18.436Z,13.17
2022-12-11T18:25:09.580Z,16.07
2022-12-11T18:27:52.041Z,14.57
2022-12-11T18:30:37.493Z,14.67
2022-12-11T18:33:07.674Z,15.50
2022-12-11T18:35:52.069Z,15.70
2022-12-11T18:38:24.835Z,14.67
2022-12-11T18:41:02.283Z,16.27
2022-12-11T18:43:34.278Z,16.27
2022-12-11T18:46:24.471Z,14.23
2022-12-11T18:48:58.296Z,16.47
2022-12-11T18:51:34.613Z,15.57
2022-12-11T18:54:15.694Z,19.13
2022-12-11T18:56:48.440Z,18.00
2022-12-11T18:59:25.661Z,14.57
2022-12-11T19:02:05.324Z,14.30
2022-12-11T19:04:39.349Z,16.20
2022-12-11T19:07:16.970Z,15.30
2022-12-11T19:09:48.425Z,14.27
2022-12-11T19:12:43.328Z,16.43
2022-12-11T19:15:22.265Z,16.13
2022-12-11T19:17:57.936Z,15.50
2022-12-11T19:20:49.166Z,16.07
2022-12-11T19:23:31.334Z,16.10
2022-12-11T19:29:39.662Z,16.10
2022-12-11T19:32:20.775Z,15.37
2022-12-11T19:35:06.180Z,16.10
2022-12-11T19:37:58.996Z,17.23
2022-12-11T19:40:38.569Z,17.30
2022-12-11T19:43:08.889Z,15.70
2022-12-11T19:45:43.717Z,15.07
2022-12-11T19:48:21.395Z,16.83
2022-12-11T19:50:52.324Z,16.70
2022-12-11T19:53:43.894Z,16.80
2022-12-11T19:56:19.661Z,18.27
2022-12-11T19:58:55.205Z,16.67
2022-12-11T20:01:36.066Z,16.83
2022-12-11T20:04:14.913Z,15.67
2022-12-11T20:06:56.920Z,16.90
2022-12-11T20:09:38.798Z,15.77
2022-12-11T20:12:10.909Z,17.23
2022-12-11T20:14:49.254Z,16.00
2022-12-11T20:17:27.031Z,16.03
2022-12-11T20:19:57.175Z,15.10
2022-12-11T20:22:27.199Z,17.10
2022-12-11T20:24:57.695Z,16.03
2022-12-11T20:27:28.707Z,17.00
2022-12-11T20:29:58.223Z,17.77
2022-12-11T20:32:29.732Z,14.90
2022-12-11T20:34:59.634Z,15.43
2022-12-11T20:37:30.552Z,16.87
2022-12-11T20:40:09.593Z,15.47
2022-12-11T20:42:40.023Z,15.63
2022-12-11T20:45:12.799Z,16.13
2022-12-11T20:47:44.564Z,14.87
2022-12-11T20:50:15.255Z,16.07
2022-12-11T20:52:44.419Z,14.63
2022-12-11T20:55:17.120Z,16.20
2022-12-11T20:57:47.964Z,15.67
2022-12-11T21:00:19.865Z,15.20
2022-12-11T21:02:51.428Z,16.43
2022-12-11T21:05:23.622Z,14.87
2022-12-11T21:07:57.108Z,15.13
2022-12-11T21:10:26.017Z,15.63
2022-12-11T21:12:55.530Z,15.77
2022-12-11T21:15:24.770Z,16.00
2022-12-11T21:17:55.491Z,16.17
2022-12-11T21:20:26.098Z,14.57
2022-12-11T21:22:55.308Z,15.43
2022-12-11T21:25:23.919Z,16.20
2022-12-11T21:27:52.962Z,14.90
2022-12-11T21:30:21.549Z,16.10
2022-12-11T21:32:50.269Z,14.37
2022-12-11T21:35:20.666Z,15.60
2022-12-11T21:37:49.867Z,14.83
2022-12-11T21:40:18.159Z,14.83
2022-12-11T21:42:46.367Z,14.13
2022-12-11T21:45:52.352Z,16.00
2022-12-11T21:48:03.632Z,14.33
2022-12-11T21:50:33.702Z,15.80
2022-12-11T21:53:02.708Z,16.07
2022-12-11T21:55:30.925Z,16.57
2022-12-11T21:57:59.072Z,16.00
2022-12-11T22:00:29.076Z,13.83
2022-12-11T22:02:57.139Z,14.27
2022-12-11T22:05:25.480Z,13.90
2022-12-11T22:07:55.435Z,14.00
2022-12-11T22:10:23.704Z,13.47
2022-12-11T22:12:51.746Z,13.17
2022-12-11T22:15:19.847Z,13.50
2022-12-11T22:17:48.007Z,14.27
2022-12-11T22:20:16.068Z,12.80
2022-12-11T22:22:44.154Z,13.13
2022-12-11T22:25:14.057Z,13.50
2022-12-11T22:27:42.465Z,13.00
2022-12-11T22:30:12.024Z,14.27
2022-12-11T22:32:40.355Z,13.40
2022-12-11T22:35:09.289Z,14.50
2022-12-11T22:37:37.532Z,14.10
2022-12-11T22:40:06.768Z,13.10
2022-12-11T22:42:36.479Z,13.70
2022-12-11T22:45:05.047Z,13.20
2022-12-11T22:47:33.186Z,13.07
2022-12-11T22:50:01.235Z,13.73
2022-12-11T22:52:29.905Z,14.47
2022-12-11T22:54:58.080Z,13.27
2022-12-11T22:57:26.127Z,12.30
2022-12-11T22:59:57.090Z,13.00
2022-12-11T23:02:25.350Z,12.77
2022-12-11T23:04:53.444Z,13.60
2022-12-11T23:07:21.475Z,12.03
2022-12-11T23:09:49.554Z,13.53
2022-12-11T23:12:18.889Z,12.97
2022-12-11T23:14:47.028Z,12.97
2022-12-11T23:17:16.522Z,13.17
2022-12-11T23:19:46.009Z,14.80
2022-12-11T23:22:14.282Z,12.60
2022-12-11T23:24:42.541Z,13.57
2022-12-11T23:27:10.921Z,12.50
2022-12-11T23:29:39.214Z,14.17
2022-12-11T23:32:07.274Z,13.30
2022-12-11T23:34:37.652Z,13.47
2022-12-11T23:37:05.724Z,14.57
2022-12-11T23:39:33.802Z,13.90
2022-12-11T23:42:02.110Z,13.90
2022-12-11T23:44:30.133Z,12.33
2022-12-11T23:47:12.225Z,13.67
2022-12-11T23:49:58.531Z,14.60
2022-12-11T23:52:30.675Z,13.50
2022-12-11T23:55:00.290Z,13.97
2022-12-11T23:57:29.232Z,11.80
